createdAt,value
2023-10-24T00:01:57.429Z,15.57
2023-10-24T00:03:59.566Z,13.50
2023-10-24T00:06:04.133Z,12.80
2023-10-24T00:08:06.186Z,10.57
2023-10-24T00:10:08.834Z,13.80
2023-10-24T00:12:10.856Z,14.37
2023-10-24T00:14:12.918Z,10.57
2023-10-24T00:16:15.065Z,15.47
2023-10-24T00:18:17.047Z,14.30
2023-10-24T00:20:19.218Z,14.30
2023-10-24T00:22:21.298Z,12.53
2023-10-24T00:24:23.451Z,15.97
2023-10-24T00:26:25.504Z,16.20
2023-10-24T00:28:28.923Z,12.77
2023-10-24T00:30:31.043Z,11.20
2023-10-24T00:32:33.264Z,17.73
2023-10-24T00:34:35.368Z,10.27
2023-10-24T00:36:41.375Z,12.57
2023-10-24T00:38:44.844Z,12.87
2023-10-24T00:40:46.975Z,10.43
2023-10-24T00:42:49.222Z,9.83
2023-10-24T00:44:51.231Z,10.40
2023-10-24T00:46:53.408Z,11.77
2023-10-24T00:48:55.775Z,10.57
2023-10-24T00:50:57.870Z,17.60
2023-10-24T00:53:00.798Z,18.40
2023-10-24T00:55:03.509Z,13.30
2023-10-24T00:57:07.681Z,16.13
2023-10-24T00:59:10.002Z,14.77
2023-10-24T01:01:14.272Z,14.57
2023-10-24T01:03:22.624Z,13.13
2023-10-24T01:05:25.278Z,17.10
2023-10-24T01:07:28.351Z,17.80
2023-10-24T01:09:30.675Z,17.80
2023-10-24T01:11:33.153Z,16.20
2023-10-24T01:13:35.680Z,11.07
2023-10-24T01:15:37.880Z,11.17
2023-10-24T01:17:53.840Z,11.50
2023-10-24T01:19:56.108Z,12.30
2023-10-24T01:21:58.311Z,18.53
2023-10-24T01:24:01.060Z,9.93
2023-10-24T01:26:04.888Z,15.03
2023-10-24T01:28:07.937Z,13.03
2023-10-24T01:30:11.840Z,11.20
2023-10-24T01:32:14.016Z,18.03
2023-10-24T01:34:16.418Z,12.87
2023-10-24T01:36:19.297Z,15.30
2023-10-24T01:38:22.565Z,12.87
2023-10-24T01:40:24.750Z,9.80
2023-10-24T01:42:26.981Z,10.17
2023-10-24T01:44:29.014Z,16.53
2023-10-24T01:46:31.199Z,12.43
2023-10-24T01:48:33.432Z,13.67
2023-10-24T01:50:35.462Z,16.23
2023-10-24T01:52:37.529Z,17.30
2023-10-24T01:54:40.024Z,11.97
2023-10-24T01:56:42.647Z,11.33
2023-10-24T01:58:44.821Z,15.90
2023-10-24T02:00:47.012Z,12.43
2023-10-24T02:02:49.423Z,10.70
2023-10-24T02:04:51.622Z,13.00
2023-10-24T02:06:53.663Z,12.10
2023-10-24T02:08:55.810Z,10.63
2023-10-24T02:10:58.646Z,16.97
2023-10-24T02:13:00.793Z,13.30
2023-10-24T02:15:05.293Z,15.20
2023-10-24T02:17:08.058Z,9.20
2023-10-24T02:19:10.176Z,21.47
2023-10-24T02:21:12.593Z,14.90
2023-10-24T02:23:14.698Z,13.67
2023-10-24T02:25:16.826Z,15.53
2023-10-24T02:27:19.014Z,11.07
2023-10-24T02:29:21.266Z,13.53
2023-10-24T02:31:23.388Z,11.20
2023-10-24T02:33:25.622Z,12.80
2023-10-24T02:35:28.756Z,13.50
2023-10-24T02:37:31.011Z,14.37
2023-10-24T02:39:33.142Z,12.10
2023-10-24T02:41:35.211Z,12.60
2023-10-24T02:43:37.374Z,11.97
2023-10-24T02:45:39.744Z,8.60
2023-10-24T02:47:41.923Z,10.07
2023-10-24T02:49:44.367Z,13.13
2023-10-24T02:51:46.483Z,15.13
2023-10-24T02:53:48.562Z,16.03
2023-10-24T02:55:51.308Z,11.23
2023-10-24T02:57:53.375Z,8.97
2023-10-24T02:59:55.499Z,10.83
2023-10-24T03:01:57.601Z,8.63
2023-10-24T03:03:59.796Z,10.33
2023-10-24T03:06:02.109Z,17.90
2023-10-24T03:08:05.076Z,12.73
2023-10-24T03:10:07.607Z,11.60
2023-10-24T03:12:14.173Z,10.23
2023-10-24T03:14:16.266Z,14.73
2023-10-24T03:16:18.887Z,13.20
2023-10-24T03:18:20.991Z,15.83
2023-10-24T03:20:23.195Z,8.87
2023-10-24T03:22:26.332Z,10.67
2023-10-24T03:24:29.935Z,9.07
2023-10-24T03:26:32.145Z,13.50
2023-10-24T03:28:34.567Z,12.80
2023-10-24T03:30:36.701Z,15.23
2023-10-24T03:32:38.974Z,14.70
2023-10-24T03:34:41.368Z,11.60
2023-10-24T03:36:43.934Z,10.90
2023-10-24T03:38:46.133Z,11.47
2023-10-24T03:40:48.347Z,15.30
2023-10-24T03:42:50.418Z,12.77
2023-10-24T03:44:52.710Z,9.80
2023-10-24T03:46:54.859Z,10.90
2023-10-24T03:48:58.524Z,12.37
2023-10-24T03:51:01.717Z,12.37
2023-10-24T03:53:05.226Z,15.93
2023-10-24T03:55:07.508Z,13.13
2023-10-24T03:57:09.622Z,10.53
2023-10-24T03:59:11.678Z,14.40
2023-10-24T04:01:13.881Z,11.27
2023-10-24T04:03:16.156Z,18.07
2023-10-24T04:05:18.580Z,11.03
2023-10-24T04:07:21.042Z,15.30
2023-10-24T04:09:37.496Z,11.40
2023-10-24T04:11:40.617Z,12.40
2023-10-24T04:13:47.537Z,12.80
2023-10-24T04:15:52.738Z,14.07
2023-10-24T04:17:55.467Z,13.63
2023-10-24T04:19:58.044Z,12.30
2023-10-24T04:22:01.215Z,16.30
2023-10-24T04:24:04.736Z,15.87
2023-10-24T04:26:07.130Z,15.63
2023-10-24T04:28:09.621Z,12.87
2023-10-24T04:30:12.128Z,12.80
2023-10-24T04:32:14.960Z,11.70
2023-10-24T04:34:17.355Z,12.03
2023-10-24T04:36:19.532Z,10.23
2023-10-24T04:38:22.090Z,15.57
2023-10-24T04:40:24.552Z,17.70
2023-10-24T04:42:41.809Z,18.80
2023-10-24T04:44:43.917Z,17.77
2023-10-24T04:46:46.096Z,14.27
2023-10-24T04:48:48.453Z,16.03
2023-10-24T04:50:50.748Z,15.90
2023-10-24T04:52:53.401Z,13.37
2023-10-24T04:54:55.634Z,15.03
2023-10-24T04:56:59.703Z,14.77
2023-10-24T04:59:01.871Z,16.20
2023-10-24T05:01:04.466Z,14.80
2023-10-24T05:03:07.862Z,12.30
2023-10-24T05:05:10.557Z,13.50
2023-10-24T05:07:12.661Z,18.97
2023-10-24T05:09:17.474Z,16.73
2023-10-24T05:11:19.901Z,15.10
2023-10-24T05:13:22.010Z,15.90
2023-10-24T05:15:24.113Z,10.27
2023-10-24T05:17:26.285Z,14.77
2023-10-24T05:19:28.399Z,11.93
2023-10-24T05:21:30.477Z,15.13
2023-10-24T05:23:32.595Z,10.20
2023-10-24T05:25:35.149Z,12.17
2023-10-24T05:27:37.256Z,11.80
2023-10-24T05:29:40.080Z,15.83
2023-10-24T05:31:42.261Z,9.63
2023-10-24T05:33:45.326Z,15.13
2023-10-24T05:35:48.999Z,13.70
2023-10-24T05:37:51.141Z,16.13
2023-10-24T05:39:53.334Z,18.43
2023-10-24T05:41:55.699Z,15.40
2023-10-24T05:43:58.045Z,11.33
2023-10-24T05:46:00.259Z,16.50
2023-10-24T05:48:02.389Z,23.43
2023-10-24T05:50:04.987Z,10.70
2023-10-24T05:52:07.036Z,14.03
2023-10-24T05:54:09.036Z,12.10
2023-10-24T05:56:11.089Z,15.03
2023-10-24T05:58:13.159Z,12.80
2023-10-24T06:00:15.297Z,14.30
2023-10-24T06:02:17.601Z,22.03
2023-10-24T06:04:19.761Z,12.93
2023-10-24T06:06:21.781Z,16.03
2023-10-24T06:08:23.877Z,21.60
2023-10-24T06:10:26.013Z,19.10
2023-10-24T06:12:31.864Z,13.17
2023-10-24T06:14:34.349Z,23.93
2023-10-24T06:16:36.437Z,11.60
2023-10-24T06:18:39.138Z,13.80
2023-10-24T06:20:41.659Z,15.00
2023-10-24T06:22:43.761Z,15.77
2023-10-24T06:24:45.790Z,11.40
2023-10-24T06:26:47.825Z,13.10
2023-10-24T06:28:49.923Z,11.77
2023-10-24T06:31:01.931Z,15.50
2023-10-24T06:33:04.259Z,12.67
2023-10-24T06:35:06.658Z,11.13
2023-10-24T06:37:08.665Z,15.90
2023-10-24T06:39:11.835Z,15.73
2023-10-24T06:41:14.858Z,12.97
2023-10-24T06:43:17.141Z,20.13
2023-10-24T06:45:19.252Z,20.37
2023-10-24T06:47:22.436Z,21.77
2023-10-24T06:49:24.601Z,26.37
2023-10-24T06:51:26.794Z,21.57
2023-10-24T06:53:29.181Z,24.10
2023-10-24T06:55:31.359Z,20.70
2023-10-24T06:57:33.459Z,35.23
2023-10-24T06:59:35.599Z,21.23
2023-10-24T07:01:37.789Z,18.10
2023-10-24T07:03:39.969Z,19.70
2023-10-24T07:05:42.316Z,15.13
2023-10-24T07:07:44.567Z,14.73
2023-10-24T07:09:46.741Z,15.23
2023-10-24T07:11:48.828Z,18.37
2023-10-24T07:13:51.010Z,20.67
2023-10-24T07:15:53.340Z,16.20
2023-10-24T07:17:55.567Z,14.83
2023-10-24T07:20:00.127Z,14.77
2023-10-24T07:22:02.643Z,14.53
2023-10-24T07:24:04.992Z,12.87
2023-10-24T07:26:07.200Z,16.07
2023-10-24T07:28:09.334Z,20.47
2023-10-24T07:30:11.793Z,17.30
2023-10-24T07:32:17.653Z,16.63
2023-10-24T07:34:19.930Z,14.30
2023-10-24T07:36:23.002Z,15.03
2023-10-24T07:38:25.032Z,16.73
2023-10-24T07:40:27.178Z,20.40
2023-10-24T07:42:29.373Z,15.60
2023-10-24T07:44:31.341Z,11.97
2023-10-24T07:46:33.600Z,15.20
2023-10-24T07:48:35.755Z,17.67
2023-10-24T07:50:37.983Z,16.47
2023-10-24T07:52:40.256Z,15.90
2023-10-24T07:54:42.682Z,14.50
2023-10-24T07:56:45.618Z,13.30
2023-10-24T07:58:47.769Z,18.43
2023-10-24T08:00:50.283Z,11.93
2023-10-24T08:02:52.415Z,14.47
2023-10-24T08:04:54.568Z,14.87
2023-10-24T08:06:57.300Z,17.37
2023-10-24T08:08:59.307Z,15.40
2023-10-24T08:11:01.453Z,11.70
2023-10-24T08:13:03.711Z,10.63
2023-10-24T08:15:06.203Z,13.30
2023-10-24T08:17:08.550Z,10.13
2023-10-24T08:19:10.834Z,12.83
2023-10-24T08:21:14.112Z,12.43
2023-10-24T08:23:16.165Z,17.87
2023-10-24T08:25:18.557Z,10.83
2023-10-24T08:27:20.609Z,11.90
2023-10-24T08:29:22.856Z,12.07
2023-10-24T08:31:25.068Z,11.80
2023-10-24T08:33:27.413Z,12.63
2023-10-24T08:35:29.468Z,12.83
2023-10-24T08:37:31.599Z,9.40
2023-10-24T08:39:33.690Z,13.30
2023-10-24T08:41:35.798Z,14.07
2023-10-24T08:43:40.083Z,11.97
2023-10-24T08:45:43.944Z,11.93
2023-10-24T08:47:48.931Z,8.17
2023-10-24T08:49:51.732Z,10.37
2023-10-24T08:51:54.232Z,8.20
2023-10-24T08:53:56.288Z,10.67
2023-10-24T08:55:59.310Z,15.03
2023-10-24T08:58:02.533Z,14.83
2023-10-24T09:00:05.624Z,11.20
2023-10-24T09:02:11.453Z,8.83
2023-10-24T09:04:14.458Z,12.37
2023-10-24T09:06:16.646Z,11.10
2023-10-24T09:08:19.515Z,11.60
2023-10-24T09:10:21.950Z,12.63
2023-10-24T09:12:24.357Z,12.50
2023-10-24T09:14:35.015Z,10.63
2023-10-24T09:16:43.947Z,12.67
2023-10-24T09:18:46.866Z,10.30
2023-10-24T09:20:48.975Z,9.93
2023-10-24T09:22:51.163Z,12.73
2023-10-24T09:24:53.285Z,21.37
2023-10-24T09:26:57.513Z,10.20
2023-10-24T09:28:59.684Z,8.73
2023-10-24T09:31:02.158Z,7.07
2023-10-24T09:33:04.415Z,9.60
2023-10-24T09:35:07.132Z,10.27
2023-10-24T09:37:11.352Z,8.03
2023-10-24T09:39:14.623Z,10.40
2023-10-24T09:41:18.182Z,8.50
2023-10-24T09:43:24.530Z,7.13
2023-10-24T09:45:27.761Z,11.53
2023-10-24T09:47:30.857Z,7.70
2023-10-24T09:49:33.341Z,7.60
2023-10-24T09:51:39.460Z,7.23
2023-10-24T09:53:42.335Z,8.47
2023-10-24T09:55:51.717Z,8.13
2023-10-24T09:57:54.234Z,5.27
2023-10-24T09:59:59.280Z,7.60
2023-10-24T10:02:07.964Z,7.73
2023-10-24T10:04:14.809Z,9.30
2023-10-24T10:06:23.757Z,10.10
2023-10-24T10:08:36.716Z,6.23
2023-10-24T10:10:39.129Z,5.93
2023-10-24T10:12:42.112Z,11.50
2023-10-24T10:15:08.066Z,7.13
2023-10-24T10:17:21.053Z,6.20
2023-10-24T10:19:41.139Z,8.37
2023-10-24T10:22:05.334Z,11.00
2023-10-24T10:24:32.443Z,7.60
2023-10-24T10:26:42.428Z,10.10
2023-10-24T10:28:59.040Z,10.37
2023-10-24T10:32:43.435Z,10.63
2023-10-24T10:33:24.382Z,9.90
2023-10-24T10:35:55.636Z,5.53
2023-10-24T10:38:02.696Z,8.07
2023-10-24T10:40:28.802Z,12.27
2023-10-24T10:42:51.949Z,9.20
2023-10-24T10:44:54.107Z,6.17
2023-10-24T10:47:03.869Z,8.93
2023-10-24T10:49:08.285Z,10.87
2023-10-24T10:51:17.494Z,7.93
2023-10-24T10:53:33.333Z,8.37
2023-10-24T10:55:47.669Z,11.77
2023-10-24T10:58:03.539Z,14.10
2023-10-24T11:00:07.978Z,7.73
2023-10-24T11:02:52.564Z,8.93
2023-10-24T11:04:54.774Z,12.67
2023-10-24T11:06:58.336Z,7.50
2023-10-24T11:09:14.525Z,9.30
2023-10-24T11:11:20.530Z,11.53
2023-10-24T11:13:41.681Z,10.17
2023-10-24T11:15:54.068Z,9.77
2023-10-24T11:17:56.504Z,11.57
2023-10-24T11:20:18.052Z,7.00
2023-10-24T11:22:20.821Z,9.50
2023-10-24T11:24:23.689Z,10.93
2023-10-24T11:26:25.798Z,13.57
2023-10-24T11:28:28.764Z,8.80
2023-10-24T11:30:30.896Z,10.20
2023-10-24T11:32:34.363Z,9.47
2023-10-24T11:34:37.089Z,10.13
2023-10-24T11:36:41.504Z,13.57
2023-10-24T11:38:43.838Z,9.07
2023-10-24T11:40:49.024Z,10.30
2023-10-24T11:42:51.067Z,8.20
2023-10-24T11:44:53.762Z,16.63
2023-10-24T11:46:55.914Z,12.33
2023-10-24T11:48:58.108Z,11.50
2023-10-24T11:51:04.153Z,11.40
2023-10-24T11:53:06.470Z,15.23
2023-10-24T11:55:08.706Z,14.10
2023-10-24T11:57:11.746Z,10.13
2023-10-24T11:59:14.749Z,10.27
2023-10-24T12:01:19.108Z,8.63
2023-10-24T12:03:22.542Z,11.93
2023-10-24T12:05:24.650Z,19.70
2023-10-24T12:07:26.937Z,14.23
2023-10-24T12:09:29.017Z,15.70
2023-10-24T12:11:33.944Z,15.63
2023-10-24T12:13:36.086Z,24.30
2023-10-24T12:15:38.525Z,17.57
2023-10-24T12:17:44.808Z,18.50
2023-10-24T12:19:46.948Z,19.23
2023-10-24T12:21:49.034Z,13.53
2023-10-24T12:23:51.263Z,15.60
2023-10-24T12:25:53.661Z,12.07
2023-10-24T12:27:55.684Z,11.57
2023-10-24T12:29:57.789Z,13.60
2023-10-24T12:31:59.981Z,11.00
2023-10-24T12:34:02.152Z,19.80
2023-10-24T12:36:05.530Z,14.13
2023-10-24T12:38:07.898Z,9.20
2023-10-24T12:40:11.541Z,12.43
2023-10-24T12:42:13.752Z,12.80
2023-10-24T12:44:15.886Z,14.57
2023-10-24T12:46:18.263Z,12.40
2023-10-24T12:48:20.846Z,13.80
2023-10-24T12:50:23.029Z,13.37
2023-10-24T12:52:25.772Z,14.73
2023-10-24T12:54:28.099Z,12.70
2023-10-24T12:56:30.212Z,13.60
2023-10-24T12:58:32.472Z,14.87
2023-10-24T13:00:34.703Z,12.90
2023-10-24T13:02:36.834Z,17.70
2023-10-24T13:04:40.319Z,10.93
2023-10-24T13:06:43.523Z,10.90
2023-10-24T13:08:45.684Z,14.07
2023-10-24T13:10:48.823Z,12.80
2023-10-24T13:12:50.948Z,16.80
2023-10-24T13:14:53.052Z,14.10
2023-10-24T13:17:09.185Z,15.90
2023-10-24T13:19:17.574Z,9.87
2023-10-24T13:21:19.845Z,16.53
2023-10-24T13:23:21.998Z,25.80
2023-10-24T13:25:24.197Z,28.73
2023-10-24T13:27:26.354Z,19.80
2023-10-24T13:29:28.620Z,15.20
2023-10-24T13:31:30.895Z,16.57
2023-10-24T13:33:44.659Z,18.10
2023-10-24T13:38:00.918Z,17.40
2023-10-24T13:40:03.655Z,12.77
2023-10-24T13:42:05.921Z,22.00
2023-10-24T13:44:08.102Z,19.13
2023-10-24T13:46:10.350Z,21.27
2023-10-24T13:48:12.850Z,15.60
2023-10-24T13:50:15.064Z,17.20
2023-10-24T13:52:17.270Z,26.73
2023-10-24T13:54:19.401Z,19.20
2023-10-24T13:56:21.569Z,18.20
2023-10-24T13:58:23.557Z,18.20
2023-10-24T14:00:25.624Z,16.80
2023-10-24T14:02:27.936Z,17.07
2023-10-24T14:04:30.330Z,16.07
2023-10-24T14:06:32.607Z,22.63
2023-10-24T14:08:36.198Z,15.03
2023-10-24T14:10:38.501Z,19.93
2023-10-24T14:12:40.713Z,16.90
2023-10-24T14:14:43.299Z,19.30
2023-10-24T14:16:45.486Z,19.50
2023-10-24T14:18:48.091Z,17.80
2023-10-24T14:20:50.943Z,19.20
2023-10-24T14:22:55.108Z,20.30
2023-10-24T14:24:57.181Z,21.53
2023-10-24T14:26:59.355Z,28.33
2023-10-24T14:29:01.813Z,23.50
2023-10-24T14:31:04.161Z,25.47
2023-10-24T14:33:06.266Z,26.47
2023-10-24T14:35:08.833Z,18.83
2023-10-24T14:37:11.016Z,19.37
2023-10-24T14:39:13.090Z,22.10
2023-10-24T14:41:15.198Z,17.70
2023-10-24T14:43:17.350Z,17.23
2023-10-24T14:45:21.283Z,13.77
2023-10-24T14:47:23.537Z,13.00
2023-10-24T14:49:25.741Z,16.87
2023-10-24T14:51:27.980Z,14.33
2023-10-24T14:53:30.230Z,14.80
2023-10-24T14:55:32.456Z,13.27
2023-10-24T14:57:34.692Z,13.60
2023-10-24T14:59:36.718Z,16.77
2023-10-24T15:01:38.805Z,16.77
2023-10-24T15:03:41.759Z,14.60
2023-10-24T15:05:43.978Z,17.57
2023-10-24T15:07:46.215Z,17.53
2023-10-24T15:09:48.522Z,16.53
2023-10-24T15:11:51.337Z,18.80
2023-10-24T15:13:53.481Z,18.97
2023-10-24T15:15:55.897Z,14.43
2023-10-24T15:17:58.062Z,18.20
2023-10-24T15:20:00.264Z,20.07
2023-10-24T15:22:02.379Z,19.80
2023-10-24T15:24:08.227Z,17.47
2023-10-24T15:26:10.256Z,20.77
2023-10-24T15:28:12.370Z,19.73
2023-10-24T15:30:14.460Z,19.20
2023-10-24T15:32:18.314Z,17.60
2023-10-24T15:34:20.605Z,17.10
2023-10-24T15:36:22.637Z,25.80
2023-10-24T15:38:24.949Z,18.33
2023-10-24T15:40:27.514Z,18.87
2023-10-24T15:42:30.220Z,22.30
2023-10-24T15:44:32.360Z,17.33
2023-10-24T15:46:34.651Z,26.87
2023-10-24T15:48:36.921Z,26.87
2023-10-24T15:50:39.028Z,26.77
2023-10-24T15:52:41.073Z,27.50
2023-10-24T15:54:43.374Z,27.40
2023-10-24T15:56:45.576Z,24.57
2023-10-24T15:58:47.634Z,27.70
2023-10-24T16:00:49.963Z,26.57
2023-10-24T16:02:52.336Z,28.43
2023-10-24T16:04:55.062Z,37.37
2023-10-24T16:06:58.149Z,42.13
2023-10-24T16:09:00.258Z,37.80
2023-10-24T16:11:02.372Z,32.70
2023-10-24T16:13:04.459Z,32.03
2023-10-24T16:15:07.001Z,37.93
2023-10-24T16:17:10.114Z,31.97
2023-10-24T16:19:12.386Z,33.33
2023-10-24T16:21:14.449Z,39.20
2023-10-24T16:23:16.686Z,37.43
2023-10-24T16:25:19.000Z,37.13
2023-10-24T16:27:22.502Z,31.53
2023-10-24T16:29:24.639Z,40.47
2023-10-24T16:31:26.752Z,29.67
2023-10-24T16:33:30.445Z,32.03
2023-10-24T16:35:32.816Z,34.70
2023-10-24T16:37:35.454Z,37.00
2023-10-24T16:39:37.530Z,30.57
2023-10-24T16:41:39.579Z,54.03
2023-10-24T16:43:41.671Z,32.27
2023-10-24T16:45:52.225Z,30.77
2023-10-24T16:47:56.113Z,39.73
2023-10-24T16:49:58.805Z,36.10
2023-10-24T16:52:01.884Z,30.23
2023-10-24T16:54:03.998Z,43.37
2023-10-24T16:56:06.461Z,37.70
2023-10-24T16:58:08.658Z,34.50
2023-10-24T17:00:11.440Z,33.53
2023-10-24T17:02:13.713Z,28.10
2023-10-24T17:04:16.870Z,35.47
2023-10-24T17:06:19.883Z,31.57
2023-10-24T17:08:22.231Z,35.30
2023-10-24T17:10:24.434Z,36.83
2023-10-24T17:12:26.514Z,34.67
2023-10-24T17:14:28.702Z,45.23
2023-10-24T17:16:31.449Z,40.17
2023-10-24T17:18:33.661Z,31.87
2023-10-24T17:20:36.038Z,53.57
2023-10-24T17:22:38.297Z,56.93
2023-10-24T17:24:40.839Z,58.53
2023-10-24T17:26:43.145Z,58.57
2023-10-24T17:28:45.839Z,79.13
2023-10-24T17:30:48.160Z,61.77
2023-10-24T17:32:50.311Z,75.27
2023-10-24T17:34:52.497Z,46.07
2023-10-24T17:36:54.597Z,33.67
2023-10-24T17:38:56.660Z,34.53
2023-10-24T17:40:59.458Z,28.17
2023-10-24T17:43:01.660Z,29.03
2023-10-24T17:45:07.079Z,29.07
2023-10-24T17:47:10.311Z,33.17
2023-10-24T17:49:12.553Z,31.30
2023-10-24T17:51:14.598Z,29.07
2023-10-24T17:53:16.764Z,38.60
2023-10-24T17:55:18.840Z,32.87
2023-10-24T17:57:21.974Z,36.70
2023-10-24T17:59:24.881Z,45.10
2023-10-24T18:01:27.015Z,42.03
2023-10-24T18:03:29.259Z,44.23
2023-10-24T18:05:31.529Z,47.57
2023-10-24T18:07:34.479Z,48.00
2023-10-24T18:09:36.695Z,44.60
2023-10-24T18:11:38.894Z,46.93
2023-10-24T18:13:41.035Z,38.80
2023-10-24T18:15:43.190Z,37.97
2023-10-24T18:17:45.500Z,38.40
2023-10-24T18:19:49.060Z,43.63
2023-10-24T18:21:51.565Z,29.23
2023-10-24T18:23:53.764Z,28.17
2023-10-24T18:25:56.075Z,32.83
2023-10-24T18:27:59.217Z,28.73
2023-10-24T18:30:06.638Z,30.03
2023-10-24T18:32:08.835Z,26.37
2023-10-24T18:34:10.913Z,25.20
2023-10-24T18:36:13.232Z,33.40
2023-10-24T18:38:18.223Z,26.43
2023-10-24T18:40:22.100Z,30.27
2023-10-24T18:42:26.612Z,23.10
2023-10-24T18:44:28.772Z,27.23
2023-10-24T18:46:30.998Z,27.10
2023-10-24T18:48:33.535Z,25.07
2023-10-24T18:50:35.995Z,25.17
2023-10-24T18:52:38.190Z,25.53
2023-10-24T18:54:40.483Z,23.17
2023-10-24T18:56:43.090Z,23.83
2023-10-24T18:58:45.266Z,21.60
2023-10-24T19:00:47.500Z,22.57
2023-10-24T19:02:53.694Z,24.50
2023-10-24T19:04:56.658Z,26.47
2023-10-24T19:06:58.815Z,52.67
2023-10-24T19:09:01.452Z,66.10
2023-10-24T19:11:03.726Z,48.80
2023-10-24T19:13:06.195Z,53.50
2023-10-24T19:15:09.103Z,55.83
2023-10-24T19:17:11.626Z,37.30
2023-10-24T19:19:15.030Z,39.93
2023-10-24T19:21:17.838Z,27.00
2023-10-24T19:23:21.025Z,26.63
2023-10-24T19:25:23.508Z,23.97
2023-10-24T19:27:25.897Z,27.00
2023-10-24T19:29:28.263Z,25.23
2023-10-24T19:31:30.606Z,21.47
2023-10-24T19:33:33.501Z,20.37
2023-10-24T19:35:37.226Z,18.07
2023-10-24T19:37:40.172Z,17.70
2023-10-24T19:39:42.677Z,27.00
2023-10-24T19:41:45.136Z,15.40
2023-10-24T19:43:47.526Z,14.77
2023-10-24T19:45:49.802Z,17.50
2023-10-24T19:47:52.322Z,20.50
2023-10-24T19:49:56.449Z,20.03
2023-10-24T19:51:59.180Z,20.57
2023-10-24T19:54:02.819Z,21.63
2023-10-24T19:56:08.877Z,16.70
2023-10-24T19:58:11.734Z,23.83
2023-10-24T20:00:15.027Z,21.60
2023-10-24T20:02:18.763Z,23.77
2023-10-24T20:04:21.313Z,20.83
2023-10-24T20:06:33.036Z,20.97
2023-10-24T20:08:38.954Z,18.73
2023-10-24T20:11:39.768Z,20.40
2023-10-24T20:13:03.712Z,22.10
2023-10-24T20:15:07.201Z,20.83
2023-10-24T20:17:12.234Z,26.73
2023-10-24T20:19:14.861Z,25.53
2023-10-24T20:21:17.293Z,22.67
2023-10-24T20:23:19.651Z,25.70
2023-10-24T20:25:21.944Z,28.17
2023-10-24T20:27:25.031Z,29.73
2023-10-24T20:29:28.755Z,34.00
2023-10-24T20:31:31.098Z,29.00
2023-10-24T20:33:33.295Z,33.37
2023-10-24T20:35:35.417Z,38.40
2023-10-24T20:37:37.810Z,32.93
2023-10-24T20:39:39.923Z,42.93
2023-10-24T20:41:41.957Z,36.33
2023-10-24T20:43:44.091Z,37.43
2023-10-24T20:45:47.765Z,37.40
2023-10-24T20:47:50.030Z,46.43
2023-10-24T20:49:52.319Z,44.93
2023-10-24T20:51:54.443Z,38.30
2023-10-24T20:53:56.479Z,40.77
2023-10-24T20:55:59.055Z,41.10
2023-10-24T20:58:02.781Z,40.87
2023-10-24T21:00:06.532Z,40.87
2023-10-24T21:02:08.804Z,44.27
2023-10-24T21:04:12.568Z,52.30
2023-10-24T21:06:14.769Z,47.67
2023-10-24T21:08:16.900Z,47.40
2023-10-24T21:10:19.501Z,48.80
2023-10-24T21:12:21.684Z,46.93
2023-10-24T21:14:23.827Z,46.27
2023-10-24T21:16:25.899Z,46.97
2023-10-24T21:18:29.383Z,43.27
2023-10-24T21:20:31.736Z,53.93
2023-10-24T21:22:33.826Z,45.70
2023-10-24T21:24:37.005Z,43.50
2023-10-24T21:26:39.132Z,50.07
2023-10-24T21:28:42.443Z,49.20
2023-10-24T21:30:44.704Z,48.80
2023-10-24T21:32:47.478Z,51.53
2023-10-24T21:34:52.689Z,43.70
2023-10-24T21:36:54.870Z,46.47
2023-10-24T21:38:56.973Z,50.33
2023-10-24T21:40:59.162Z,52.57
2023-10-24T21:43:01.796Z,45.83
2023-10-24T21:45:04.496Z,47.77
2023-10-24T21:47:06.634Z,51.93
2023-10-24T21:49:08.922Z,51.97
2023-10-24T21:51:11.184Z,54.30
2023-10-24T21:53:13.191Z,53.43
2023-10-24T21:55:15.364Z,54.17
2023-10-24T21:57:17.527Z,51.20
2023-10-24T21:59:19.567Z,53.43
2023-10-24T22:01:22.228Z,51.17
2023-10-24T22:03:24.823Z,65.30
2023-10-24T22:05:27.050Z,54.13
2023-10-24T22:07:29.135Z,56.03
2023-10-24T22:09:31.229Z,56.60
2023-10-24T22:11:35.093Z,58.37
2023-10-24T22:13:37.173Z,59.27
2023-10-24T22:15:39.435Z,55.00
2023-10-24T22:17:43.346Z,57.80
2023-10-24T22:19:45.555Z,64.50
2023-10-24T22:21:48.100Z,62.23
2023-10-24T22:23:50.862Z,60.70
2023-10-24T22:25:55.642Z,53.97
2023-10-24T22:28:04.957Z,55.00
2023-10-24T22:30:08.683Z,53.10
2023-10-24T22:32:10.723Z,52.87
2023-10-24T22:34:12.938Z,59.40
2023-10-24T22:36:15.004Z,54.93
2023-10-24T22:38:17.033Z,64.63
2023-10-24T22:40:19.166Z,62.10
2023-10-24T22:42:21.204Z,59.67
2023-10-24T22:44:23.253Z,60.93
2023-10-24T22:46:25.385Z,60.10
2023-10-24T22:48:27.537Z,64.37
2023-10-24T22:50:29.769Z,60.30
2023-10-24T22:52:31.953Z,57.00
2023-10-24T22:54:33.982Z,59.17
2023-10-24T22:56:36.056Z,71.33
2023-10-24T22:58:38.197Z,61.77
2023-10-24T23:00:40.447Z,65.60
2023-10-24T23:02:42.642Z,63.20
2023-10-24T23:04:44.758Z,59.87
2023-10-24T23:06:46.906Z,53.63
2023-10-24T23:08:49.043Z,52.60
2023-10-24T23:10:51.151Z,59.17
2023-10-24T23:12:53.286Z,61.40
2023-10-24T23:14:56.694Z,55.80
2023-10-24T23:16:58.970Z,58.17
2023-10-24T23:19:01.413Z,54.40
2023-10-24T23:21:03.658Z,60.80
2023-10-24T23:23:05.745Z,50.70
2023-10-24T23:25:08.194Z,52.60
2023-10-24T23:27:10.221Z,49.87
2023-10-24T23:29:12.359Z,56.83
2023-10-24T23:31:14.484Z,52.00
2023-10-24T23:33:16.718Z,57.10
2023-10-24T23:35:18.834Z,47.30
2023-10-24T23:37:20.768Z,45.37
2023-10-24T23:39:22.896Z,42.20
2023-10-24T23:41:27.128Z,44.00
2023-10-24T23:43:29.224Z,39.20
2023-10-24T23:45:31.227Z,43.37
2023-10-24T23:47:33.650Z,37.23
2023-10-24T23:49:36.083Z,43.07
2023-10-24T23:51:38.091Z,42.50
2023-10-24T23:53:40.152Z,35.43
2023-10-24T23:55:43.762Z,36.70
2023-10-24T23:57:45.855Z,40.47
2023-10-24T23:59:47.884Z,42.00
